METAR Data
IDs: Format: Raw Decoded Include TAF

Data at: 2046 UTC 22 Sep 2020

KSUE 221956Z AUTO 20005KT 10SM CLR 24/16 A3006 RMK AO2 SLP176 T02440156 PNO $
KSUE 221856Z AUTO VRB04KT 9SM CLR 24/16 A3008 RMK AO2 SLP183 T02390156 PNO $
KSUE 221756Z AUTO 23004KT 10SM CLR 22/14 A3010 RMK AO2 SLP190 6//// T02220144 10228 20167 58013 PNO $
KSUE 221656Z AUTO 26005KT 10SM CLR 21/14 A3012 RMK AO2 SLP195 T02110139 PNO $
KSUE 221556Z AUTO 28007KT 10SM CLR 19/13 A3013 RMK AO2 SLP201 T01940133 PNO $
KSUE 221456Z AUTO 26010KT 10SM CLR 19/12 A3014 RMK AO2 SLP205 6//// T01890122 50001 PNO $
KSUE 221356Z AUTO 26008KT 10SM CLR 17/12 A3014 RMK AO2 SLP208 T01720117 PNO $
KSUE 221256Z AUTO 24011KT 10SM CLR 17/11 A3014 RMK AO2 SLP208 T01670111 PNO $
KSUE 221156Z AUTO 24009KT 10SM CLR 17/11 A3014 RMK AO2 SLP205 6//// 7//// T01720106 10178 20144 58006 PNO $
KSUE 221056Z AUTO 23009KT 10SM CLR 17/11 A3015 RMK AO2 SLP208 T01720106 PNO $
KSUE 220956Z AUTO 20008KT 10SM CLR 15/10 A3015 RMK AO2 SLP209 T01500100 PNO $
KSUE 220856Z AUTO 20008KT 10SM CLR 15/10 A3016 RMK AO2 SLP211 6//// T01500100 58009 PNO $
KSUE 220756Z AUTO 20008KT 10SM CLR 14/10 A3017 RMK AO2 SLP213 T01440100 PNO $
KSUE 220656Z AUTO 20009KT 10SM CLR 15/11 A3018 RMK AO2 SLP218 T01500106 PNO $
KSUE 220556Z AUTO 20011KT 10SM CLR 16/11 A3018 RMK AO2 SLP219 6//// T01560106 10161 20150 402060133 58001 PNO $
KSUE 220456Z AUTO 20010KT 10SM SCT110 15/11 A3019 RMK AO2 RAB14E33 SLP222 T01500111 PNO $
KSUE 220356Z AUTO 19009KT 10SM OVC120 16/11 A3020 RMK AO2 LTG DSNT SW AND W RAB41E56 SLP225 T01560111 PNO $
KSUE 220256Z AUTO 19011KT 10SM CLR 16/11 A3019 RMK AO2 SLP221 6//// T01560106 58008 PNO $
KSUE 220156Z AUTO 18013KT 10SM CLR 15/11 A3020 RMK AO2 SLP226 T01500111 PNO $
KSUE 220056Z AUTO 18010KT 10SM CLR 15/12 A3023 RMK AO2 SLP234 T01500122 PNO $
KSUE 212356Z AUTO 18014G21KT 10SM CLR 16/13 A3021 RMK AO2 SLP228 6//// T01560128 10200 20156 55004 PNO $
KSUE 212256Z AUTO 17015G22KT 10SM CLR 16/13 A3021 RMK AO2 SLP227 T01610128 PNO $
KSUE 212156Z AUTO 17017G23KT 10SM CLR 17/11 A3021 RMK AO2 SLP230 T01720111 PNO $
KSUE 212056Z AUTO 17015G23KT 10SM CLR 18/09 A3022 RMK AO2 SLP233 6//// T01830089 56027 PNO $
KSUE 211956Z AUTO 16015G20KT 10SM CLR 19/09 A3024 RMK AO2 SLP239 T01940094 PNO $
KSUE 211856Z AUTO 17011KT 10SM CLR 20/10 A3027 RMK AO2 SLP248 T02000100 PNO $
KSUE 211756Z AUTO 16009KT 10SM CLR 20/10 A3030 RMK AO2 SLP260 6//// T02000100 10206 20139 58015 PNO $
KSUE 211656Z AUTO 20010KT 10SM CLR 20/08 A3032 RMK AO2 SLP266 T02000078 PNO $
KSUE 211556Z AUTO 19012KT 10SM CLR 19/08 A3034 RMK AO2 SLP273 T01890083 PNO $
KSUE 211456Z AUTO 19009KT 10SM CLR 17/10 A3035 RMK AO2 SLP275 6//// T01720100 50001 PNO $
KSUE 211356Z AUTO 19010G18KT 10SM CLR 16/12 A3035 RMK AO2 SLP277 T01610117 PNO $
KSUE 211256Z AUTO 18013KT 10SM CLR 15/12 A3035 RMK AO2 SLP276 T01500122 PNO $
KSUE 211156Z AUTO 18010KT 10SM CLR 14/12 A3035 RMK AO2 SLP275 6//// 7//// T01390117 10144 20133 53000 PNO $
KSUE 211056Z AUTO 17010KT 10SM CLR 14/12 A3034 RMK AO2 SLP272 T01390117 PNO $
KSUE 210956Z AUTO 17012KT 10SM CLR 14/12 A3034 RMK AO2 SLP273 T01440117 PNO $
KSUE 210856Z AUTO 17012KT 10SM CLR 14/12 A3034 RMK AO2 SLP276 6//// T01440122 56002 PNO $